sensor_id;sensor_type;location;lat;lon;timestamp;P1;durP1;ratioP1;P2;durP2;ratioP2
52946;SDS011;45776;40.400;17.260;2022-07-05T00:01:50;7.68;;;3.75;;
52946;SDS011;45776;40.400;17.260;2022-07-05T00:04:15;8.90;;;3.35;;
52946;SDS011;45776;40.400;17.260;2022-07-05T00:06:41;5.50;;;3.22;;
52946;SDS011;45776;40.400;17.260;2022-07-05T00:09:26;8.32;;;3.45;;
52946;SDS011;45776;40.400;17.260;2022-07-05T00:11:52;6.40;;;3.17;;
52946;SDS011;45776;40.400;17.260;2022-07-05T00:14:18;7.75;;;3.42;;
52946;SDS011;45776;40.400;17.260;2022-07-05T00:16:43;6.75;;;3.45;;
52946;SDS011;45776;40.400;17.260;2022-07-05T00:19:09;6.85;;;3.17;;
52946;SDS011;45776;40.400;17.260;2022-07-05T00:21:34;6.55;;;3.67;;
52946;SDS011;45776;40.400;17.260;2022-07-05T00:24:00;8.80;;;3.97;;
52946;SDS011;45776;40.400;17.260;2022-07-05T00:26:25;9.20;;;4.13;;
52946;SDS011;45776;40.400;17.260;2022-07-05T00:28:51;9.15;;;4.05;;
52946;SDS011;45776;40.400;17.260;2022-07-05T00:31:16;7.85;;;4.75;;
52946;SDS011;45776;40.400;17.260;2022-07-05T00:33:42;9.55;;;3.90;;
52946;SDS011;45776;40.400;17.260;2022-07-05T00:36:07;9.15;;;4.85;;
52946;SDS011;45776;40.400;17.260;2022-07-05T00:38:33;9.50;;;4.95;;
52946;SDS011;45776;40.400;17.260;2022-07-05T00:40:58;8.52;;;4.88;;
52946;SDS011;45776;40.400;17.260;2022-07-05T00:43:24;10.32;;;5.15;;
52946;SDS011;45776;40.400;17.260;2022-07-05T00:45:49;12.55;;;5.22;;
52946;SDS011;45776;40.400;17.260;2022-07-05T00:48:15;9.95;;;4.97;;
52946;SDS011;45776;40.400;17.260;2022-07-05T00:50:40;13.00;;;6.22;;
52946;SDS011;45776;40.400;17.260;2022-07-05T00:53:07;10.80;;;6.15;;
52946;SDS011;45776;40.400;17.260;2022-07-05T00:55:33;9.40;;;6.05;;
52946;SDS011;45776;40.400;17.260;2022-07-05T00:57:59;10.98;;;6.50;;
52946;SDS011;45776;40.400;17.260;2022-07-05T01:00:25;9.60;;;6.55;;
52946;SDS011;45776;40.400;17.260;2022-07-05T01:02:50;12.68;;;6.63;;
52946;SDS011;45776;40.400;17.260;2022-07-05T01:05:16;11.10;;;6.43;;
52946;SDS011;45776;40.400;17.260;2022-07-05T01:07:42;12.20;;;6.63;;
52946;SDS011;45776;40.400;17.260;2022-07-05T01:10:07;12.38;;;6.88;;
52946;SDS011;45776;40.400;17.260;2022-07-05T01:12:34;11.90;;;6.22;;
52946;SDS011;45776;40.400;17.260;2022-07-05T01:14:59;12.20;;;6.60;;
52946;SDS011;45776;40.400;17.260;2022-07-05T01:17:25;12.18;;;6.82;;
52946;SDS011;45776;40.400;17.260;2022-07-05T01:19:50;10.57;;;6.40;;
52946;SDS011;45776;40.400;17.260;2022-07-05T01:22:18;8.23;;;6.88;;
52946;SDS011;45776;40.400;17.260;2022-07-05T01:24:45;11.25;;;6.90;;
52946;SDS011;45776;40.400;17.260;2022-07-05T01:27:11;10.45;;;7.10;;
52946;SDS011;45776;40.400;17.260;2022-07-05T01:29:37;10.68;;;7.35;;
52946;SDS011;45776;40.400;17.260;2022-07-05T01:32:03;14.38;;;7.43;;
52946;SDS011;45776;40.400;17.260;2022-07-05T01:34:29;10.82;;;7.30;;
52946;SDS011;45776;40.400;17.260;2022-07-05T01:36:54;10.65;;;7.40;;
52946;SDS011;45776;40.400;17.260;2022-07-05T01:39:20;11.68;;;7.60;;
52946;SDS011;45776;40.400;17.260;2022-07-05T01:41:46;12.85;;;7.88;;
52946;SDS011;45776;40.400;17.260;2022-07-05T01:44:13;12.43;;;7.43;;
52946;SDS011;45776;40.400;17.260;2022-07-05T01:46:38;13.10;;;7.85;;
52946;SDS011;45776;40.400;17.260;2022-07-05T01:49:09;17.60;;;8.68;;
52946;SDS011;45776;40.400;17.260;2022-07-05T01:51:41;11.85;;;8.15;;
52946;SDS011;45776;40.400;17.260;2022-07-05T01:54:13;13.45;;;8.20;;
52946;SDS011;45776;40.400;17.260;2022-07-05T01:56:38;10.15;;;8.20;;
52946;SDS011;45776;40.400;17.260;2022-07-05T01:59:04;10.90;;;8.48;;
52946;SDS011;45776;40.400;17.260;2022-07-05T02:01:33;9.85;;;8.23;;
52946;SDS011;45776;40.400;17.260;2022-07-05T02:03:58;10.98;;;8.40;;
52946;SDS011;45776;40.400;17.260;2022-07-05T02:06:24;11.25;;;9.20;;
52946;SDS011;45776;40.400;17.260;2022-07-05T02:08:49;13.63;;;9.07;;
52946;SDS011;45776;40.400;17.260;2022-07-05T02:11:15;13.68;;;8.85;;
52946;SDS011;45776;40.400;17.260;2022-07-05T02:13:40;13.00;;;9.23;;
52946;SDS011;45776;40.400;17.260;2022-07-05T02:16:06;11.35;;;8.80;;
52946;SDS011;45776;40.400;17.260;2022-07-05T02:18:32;12.55;;;8.65;;
52946;SDS011;45776;40.400;17.260;2022-07-05T02:20:57;12.30;;;9.55;;
52946;SDS011;45776;40.400;17.260;2022-07-05T02:23:22;13.68;;;9.63;;
52946;SDS011;45776;40.400;17.260;2022-07-05T02:25:48;13.50;;;9.35;;
52946;SDS011;45776;40.400;17.260;2022-07-05T02:28:13;11.32;;;8.88;;
52946;SDS011;45776;40.400;17.260;2022-07-05T02:30:39;10.65;;;9.18;;
52946;SDS011;45776;40.400;17.260;2022-07-05T02:33:04;16.02;;;9.68;;
52946;SDS011;45776;40.400;17.260;2022-07-05T02:35:30;11.63;;;9.75;;
52946;SDS011;45776;40.400;17.260;2022-07-05T02:37:55;13.63;;;9.93;;
52946;SDS011;45776;40.400;17.260;2022-07-05T02:40:21;14.05;;;10.00;;
52946;SDS011;45776;40.400;17.260;2022-07-05T02:42:47;14.00;;;10.68;;
52946;SDS011;45776;40.400;17.260;2022-07-05T02:45:12;13.68;;;10.45;;
52946;SDS011;45776;40.400;17.260;2022-07-05T02:47:38;14.38;;;9.82;;
52946;SDS011;45776;40.400;17.260;2022-07-05T02:50:06;15.88;;;10.60;;
52946;SDS011;45776;40.400;17.260;2022-07-05T02:52:33;16.00;;;9.85;;
52946;SDS011;45776;40.400;17.260;2022-07-05T02:54:59;17.05;;;10.25;;
52946;SDS011;45776;40.400;17.260;2022-07-05T02:57:25;15.88;;;10.25;;
52946;SDS011;45776;40.400;17.260;2022-07-05T02:59:52;15.13;;;11.15;;
52946;SDS011;45776;40.400;17.260;2022-07-05T03:02:21;14.48;;;10.02;;
52946;SDS011;45776;40.400;17.260;2022-07-05T03:04:48;20.52;;;10.63;;
52946;SDS011;45776;40.400;17.260;2022-07-05T03:07:13;13.82;;;9.52;;
52946;SDS011;45776;40.400;17.260;2022-07-05T03:09:39;13.00;;;9.00;;
52946;SDS011;45776;40.400;17.260;2022-07-05T03:12:05;15.05;;;9.85;;
52946;SDS011;45776;40.400;17.260;2022-07-05T03:14:31;18.27;;;10.88;;
52946;SDS011;45776;40.400;17.260;2022-07-05T03:16:56;12.55;;;9.73;;
52946;SDS011;45776;40.400;17.260;2022-07-05T03:19:22;14.75;;;10.30;;
52946;SDS011;45776;40.400;17.260;2022-07-05T03:21:47;14.57;;;9.40;;
52946;SDS011;45776;40.400;17.260;2022-07-05T03:24:13;13.20;;;9.88;;
52946;SDS011;45776;40.400;17.260;2022-07-05T03:26:38;14.30;;;9.13;;
52946;SDS011;45776;40.400;17.260;2022-07-05T03:29:04;18.77;;;9.30;;
52946;SDS011;45776;40.400;17.260;2022-07-05T03:31:29;13.77;;;9.55;;
52946;SDS011;45776;40.400;17.260;2022-07-05T03:33:55;11.85;;;8.98;;
52946;SDS011;45776;40.400;17.260;2022-07-05T03:36:21;13.82;;;8.98;;
52946;SDS011;45776;40.400;17.260;2022-07-05T03:38:47;13.80;;;8.63;;
52946;SDS011;45776;40.400;17.260;2022-07-05T03:41:12;13.40;;;9.00;;
52946;SDS011;45776;40.400;17.260;2022-07-05T03:43:38;14.95;;;9.15;;
52946;SDS011;45776;40.400;17.260;2022-07-05T03:46:03;14.73;;;9.07;;
52946;SDS011;45776;40.400;17.260;2022-07-05T03:48:29;13.02;;;8.52;;
52946;SDS011;45776;40.400;17.260;2022-07-05T03:50:55;11.00;;;8.35;;
52946;SDS011;45776;40.400;17.260;2022-07-05T03:53:20;12.82;;;7.82;;
52946;SDS011;45776;40.400;17.260;2022-07-05T03:55:46;10.43;;;7.35;;
52946;SDS011;45776;40.400;17.260;2022-07-05T03:58:11;12.95;;;7.47;;
52946;SDS011;45776;40.400;17.260;2022-07-05T04:00:37;16.05;;;7.80;;
52946;SDS011;45776;40.400;17.260;2022-07-05T04:03:02;11.10;;;7.80;;
52946;SDS011;45776;40.400;17.260;2022-07-05T04:05:28;11.73;;;8.18;;
52946;SDS011;45776;40.400;17.260;2022-07-05T04:07:54;10.68;;;7.45;;
52946;SDS011;45776;40.400;17.260;2022-07-05T04:10:20;13.38;;;7.90;;
52946;SDS011;45776;40.400;17.260;2022-07-05T04:12:47;11.80;;;8.15;;
52946;SDS011;45776;40.400;17.260;2022-07-05T04:15:13;11.43;;;7.90;;
52946;SDS011;45776;40.400;17.260;2022-07-05T04:20:17;14.60;;;7.88;;
52946;SDS011;45776;40.400;17.260;2022-07-05T04:22:43;11.60;;;8.10;;
52946;SDS011;45776;40.400;17.260;2022-07-05T04:25:08;14.95;;;8.25;;
52946;SDS011;45776;40.400;17.260;2022-07-05T04:27:51;10.50;;;7.40;;
52946;SDS011;45776;40.400;17.260;2022-07-05T04:30:18;10.60;;;8.25;;
52946;SDS011;45776;40.400;17.260;2022-07-05T04:32:45;13.13;;;7.97;;
52946;SDS011;45776;40.400;17.260;2022-07-05T04:35:10;12.73;;;7.57;;
52946;SDS011;45776;40.400;17.260;2022-07-05T04:37:37;11.00;;;7.50;;
52946;SDS011;45776;40.400;17.260;2022-07-05T04:40:03;10.48;;;6.95;;
52946;SDS011;45776;40.400;17.260;2022-07-05T04:42:30;14.05;;;6.88;;
52946;SDS011;45776;40.400;17.260;2022-07-05T04:44:56;11.30;;;6.10;;
52946;SDS011;45776;40.400;17.260;2022-07-05T04:47:22;11.60;;;6.90;;
52946;SDS011;45776;40.400;17.260;2022-07-05T04:49:47;17.27;;;7.40;;
52946;SDS011;45776;40.400;17.260;2022-07-05T04:52:13;17.60;;;7.95;;
52946;SDS011;45776;40.400;17.260;2022-07-05T04:54:38;14.82;;;7.15;;
52946;SDS011;45776;40.400;17.260;2022-07-05T04:57:04;11.38;;;7.25;;
52946;SDS011;45776;40.400;17.260;2022-07-05T04:59:29;9.48;;;6.53;;
52946;SDS011;45776;40.400;17.260;2022-07-05T05:01:55;10.52;;;6.50;;
52946;SDS011;45776;40.400;17.260;2022-07-05T05:04:20;12.15;;;6.70;;
52946;SDS011;45776;40.400;17.260;2022-07-05T05:06:46;12.32;;;7.45;;
52946;SDS011;45776;40.400;17.260;2022-07-05T05:09:12;9.15;;;5.68;;
52946;SDS011;45776;40.400;17.260;2022-07-05T05:11:37;8.93;;;5.68;;
52946;SDS011;45776;40.400;17.260;2022-07-05T05:14:03;8.50;;;5.88;;
52946;SDS011;45776;40.400;17.260;2022-07-05T05:16:28;11.40;;;5.68;;
52946;SDS011;45776;40.400;17.260;2022-07-05T05:18:54;8.52;;;5.97;;
52946;SDS011;45776;40.400;17.260;2022-07-05T05:21:19;10.90;;;6.28;;
52946;SDS011;45776;40.400;17.260;2022-07-05T05:23:45;9.35;;;5.70;;
52946;SDS011;45776;40.400;17.260;2022-07-05T05:26:10;12.20;;;6.10;;
52946;SDS011;45776;40.400;17.260;2022-07-05T05:28:36;11.85;;;6.35;;
52946;SDS011;45776;40.400;17.260;2022-07-05T05:31:02;11.02;;;5.60;;
52946;SDS011;45776;40.400;17.260;2022-07-05T05:33:27;9.02;;;6.10;;
52946;SDS011;45776;40.400;17.260;2022-07-05T05:35:53;10.70;;;6.32;;
52946;SDS011;45776;40.400;17.260;2022-07-05T05:38:18;11.00;;;6.13;;
52946;SDS011;45776;40.400;17.260;2022-07-05T05:40:44;8.98;;;6.05;;
52946;SDS011;45776;40.400;17.260;2022-07-05T05:43:10;18.88;;;6.13;;
52946;SDS011;45776;40.400;17.260;2022-07-05T05:45:36;12.40;;;5.95;;
52946;SDS011;45776;40.400;17.260;2022-07-05T05:48:02;11.18;;;6.15;;
52946;SDS011;45776;40.400;17.260;2022-07-05T05:50:28;13.35;;;6.30;;
52946;SDS011;45776;40.400;17.260;2022-07-05T05:53:06;12.48;;;6.10;;
52946;SDS011;45776;40.400;17.260;2022-07-05T05:55:32;8.52;;;5.50;;
52946;SDS011;45776;40.400;17.260;2022-07-05T05:58:15;12.10;;;6.25;;
52946;SDS011;45776;40.400;17.260;2022-07-05T06:00:42;11.70;;;6.00;;
52946;SDS011;45776;40.400;17.260;2022-07-05T06:03:13;8.60;;;5.50;;
52946;SDS011;45776;40.400;17.260;2022-07-05T06:05:40;11.50;;;5.93;;
52946;SDS011;45776;40.400;17.260;2022-07-05T06:08:05;7.97;;;5.53;;
52946;SDS011;45776;40.400;17.260;2022-07-05T06:10:32;11.48;;;5.57;;
52946;SDS011;45776;40.400;17.260;2022-07-05T06:12:59;9.35;;;5.32;;
52946;SDS011;45776;40.400;17.260;2022-07-05T06:15:28;8.20;;;5.32;;
52946;SDS011;45776;40.400;17.260;2022-07-05T06:17:54;8.52;;;5.10;;
52946;SDS011;45776;40.400;17.260;2022-07-05T06:20:20;9.50;;;5.10;;
52946;SDS011;45776;40.400;17.260;2022-07-05T06:22:48;10.05;;;5.10;;
52946;SDS011;45776;40.400;17.260;2022-07-05T06:25:14;9.95;;;5.70;;
52946;SDS011;45776;40.400;17.260;2022-07-05T06:27:40;7.20;;;5.20;;
52946;SDS011;45776;40.400;17.260;2022-07-05T06:30:10;13.80;;;5.50;;
52946;SDS011;45776;40.400;17.260;2022-07-05T06:32:39;9.40;;;5.63;;
52946;SDS011;45776;40.400;17.260;2022-07-05T06:35:05;6.88;;;5.40;;
52946;SDS011;45776;40.400;17.260;2022-07-05T06:40:11;9.95;;;6.57;;
52946;SDS011;45776;40.400;17.260;2022-07-05T06:42:38;15.20;;;6.32;;
52946;SDS011;45776;40.400;17.260;2022-07-05T06:45:06;14.32;;;6.55;;
52946;SDS011;45776;40.400;17.260;2022-07-05T06:47:33;9.88;;;6.20;;
52946;SDS011;45776;40.400;17.260;2022-07-05T06:49:59;12.55;;;5.80;;
52946;SDS011;45776;40.400;17.260;2022-07-05T06:52:24;8.85;;;5.93;;
52946;SDS011;45776;40.400;17.260;2022-07-05T06:54:50;12.40;;;6.70;;
52946;SDS011;45776;40.400;17.260;2022-07-05T06:57:19;13.52;;;6.50;;
52946;SDS011;45776;40.400;17.260;2022-07-05T06:59:48;15.32;;;6.43;;
52946;SDS011;45776;40.400;17.260;2022-07-05T07:02:14;12.30;;;5.53;;
52946;SDS011;45776;40.400;17.260;2022-07-05T07:04:40;9.30;;;5.70;;
52946;SDS011;45776;40.400;17.260;2022-07-05T07:07:05;16.05;;;5.45;;
52946;SDS011;45776;40.400;17.260;2022-07-05T07:09:55;15.40;;;6.25;;
52946;SDS011;45776;40.400;17.260;2022-07-05T07:12:21;16.15;;;5.90;;
52946;SDS011;45776;40.400;17.260;2022-07-05T07:14:47;13.52;;;6.30;;
52946;SDS011;45776;40.400;17.260;2022-07-05T07:17:12;16.05;;;6.72;;
52946;SDS011;45776;40.400;17.260;2022-07-05T07:19:37;13.38;;;6.53;;
52946;SDS011;45776;40.400;17.260;2022-07-05T07:22:03;9.98;;;5.90;;
52946;SDS011;45776;40.400;17.260;2022-07-05T07:24:29;11.02;;;6.38;;
52946;SDS011;45776;40.400;17.260;2022-07-05T07:26:54;11.20;;;6.40;;
52946;SDS011;45776;40.400;17.260;2022-07-05T07:29:30;9.35;;;5.93;;
52946;SDS011;45776;40.400;17.260;2022-07-05T07:31:57;10.43;;;6.15;;
52946;SDS011;45776;40.400;17.260;2022-07-05T07:34:23;9.18;;;6.10;;
52946;SDS011;45776;40.400;17.260;2022-07-05T07:36:49;9.68;;;6.40;;
52946;SDS011;45776;40.400;17.260;2022-07-05T07:39:14;11.90;;;6.05;;
52946;SDS011;45776;40.400;17.260;2022-07-05T07:41:40;12.75;;;7.03;;
52946;SDS011;45776;40.400;17.260;2022-07-05T07:44:05;10.45;;;6.70;;
52946;SDS011;45776;40.400;17.260;2022-07-05T07:46:31;9.23;;;6.63;;
52946;SDS011;45776;40.400;17.260;2022-07-05T07:48:57;13.10;;;7.10;;
52946;SDS011;45776;40.400;17.260;2022-07-05T07:51:23;15.85;;;7.95;;
52946;SDS011;45776;40.400;17.260;2022-07-05T07:53:48;11.85;;;8.18;;
52946;SDS011;45776;40.400;17.260;2022-07-05T07:56:14;11.82;;;7.95;;
52946;SDS011;45776;40.400;17.260;2022-07-05T07:58:39;11.70;;;8.00;;
52946;SDS011;45776;40.400;17.260;2022-07-05T08:01:05;13.68;;;8.60;;
52946;SDS011;45776;40.400;17.260;2022-07-05T08:03:36;12.70;;;8.97;;
52946;SDS011;45776;40.400;17.260;2022-07-05T08:06:02;12.80;;;9.50;;
52946;SDS011;45776;40.400;17.260;2022-07-05T08:08:27;14.52;;;8.32;;
52946;SDS011;45776;40.400;17.260;2022-07-05T08:10:53;20.30;;;8.60;;
52946;SDS011;45776;40.400;17.260;2022-07-05T08:13:18;12.52;;;7.88;;
52946;SDS011;45776;40.400;17.260;2022-07-05T08:15:44;14.15;;;7.75;;
52946;SDS011;45776;40.400;17.260;2022-07-05T08:18:10;14.00;;;9.25;;
52946;SDS011;45776;40.400;17.260;2022-07-05T08:20:54;18.60;;;10.32;;
52946;SDS011;45776;40.400;17.260;2022-07-05T08:23:38;14.27;;;9.60;;
52946;SDS011;45776;40.400;17.260;2022-07-05T08:26:04;16.38;;;10.25;;
52946;SDS011;45776;40.400;17.260;2022-07-05T08:28:29;16.65;;;10.25;;
52946;SDS011;45776;40.400;17.260;2022-07-05T08:30:55;13.18;;;10.40;;
52946;SDS011;45776;40.400;17.260;2022-07-05T08:33:20;12.55;;;9.85;;
52946;SDS011;45776;40.400;17.260;2022-07-05T08:35:45;19.15;;;10.65;;
52946;SDS011;45776;40.400;17.260;2022-07-05T08:38:11;14.23;;;11.15;;
52946;SDS011;45776;40.400;17.260;2022-07-05T08:40:37;15.15;;;10.70;;
52946;SDS011;45776;40.400;17.260;2022-07-05T08:43:09;13.55;;;10.25;;
52946;SDS011;45776;40.400;17.260;2022-07-05T08:45:36;13.45;;;9.90;;
52946;SDS011;45776;40.400;17.260;2022-07-05T08:48:02;17.42;;;10.75;;
52946;SDS011;45776;40.400;17.260;2022-07-05T08:50:29;12.43;;;9.02;;
52946;SDS011;45776;40.400;17.260;2022-07-05T08:52:55;17.70;;;9.35;;
52946;SDS011;45776;40.400;17.260;2022-07-05T08:55:22;15.20;;;8.70;;
52946;SDS011;45776;40.400;17.260;2022-07-05T08:57:48;14.23;;;9.13;;
52946;SDS011;45776;40.400;17.260;2022-07-05T09:00:13;17.27;;;8.50;;
52946;SDS011;45776;40.400;17.260;2022-07-05T09:02:39;18.00;;;10.18;;
52946;SDS011;45776;40.400;17.260;2022-07-05T09:05:05;13.45;;;10.10;;
52946;SDS011;45776;40.400;17.260;2022-07-05T09:07:32;17.20;;;9.05;;
52946;SDS011;45776;40.400;17.260;2022-07-05T09:10:01;13.48;;;7.85;;
52946;SDS011;45776;40.400;17.260;2022-07-05T09:12:28;12.05;;;8.32;;
52946;SDS011;45776;40.400;17.260;2022-07-05T09:14:54;12.93;;;8.70;;
52946;SDS011;45776;40.400;17.260;2022-07-05T09:17:20;10.10;;;7.57;;
52946;SDS011;45776;40.400;17.260;2022-07-05T09:22:52;17.27;;;9.77;;
52946;SDS011;45776;40.400;17.260;2022-07-05T09:25:29;13.55;;;8.45;;
52946;SDS011;45776;40.400;17.260;2022-07-05T09:30:23;10.82;;;8.23;;
52946;SDS011;45776;40.400;17.260;2022-07-05T09:32:59;11.82;;;8.27;;
52946;SDS011;45776;40.400;17.260;2022-07-05T09:35:28;13.82;;;8.02;;
52946;SDS011;45776;40.400;17.260;2022-07-05T09:37:55;11.02;;;7.22;;
52946;SDS011;45776;40.400;17.260;2022-07-05T09:40:20;9.55;;;6.72;;
52946;SDS011;45776;40.400;17.260;2022-07-05T09:42:46;10.73;;;6.35;;
52946;SDS011;45776;40.400;17.260;2022-07-05T09:45:11;12.13;;;6.32;;
52946;SDS011;45776;40.400;17.260;2022-07-05T09:47:37;11.10;;;6.97;;
52946;SDS011;45776;40.400;17.260;2022-07-05T09:50:03;14.82;;;8.70;;
52946;SDS011;45776;40.400;17.260;2022-07-05T09:52:30;11.43;;;8.52;;
52946;SDS011;45776;40.400;17.260;2022-07-05T09:55:12;10.43;;;7.90;;
52946;SDS011;45776;40.400;17.260;2022-07-05T09:57:43;10.48;;;8.20;;
52946;SDS011;45776;40.400;17.260;2022-07-05T10:00:12;12.80;;;8.00;;
52946;SDS011;45776;40.400;17.260;2022-07-05T10:02:40;15.00;;;7.65;;
52946;SDS011;45776;40.400;17.260;2022-07-05T10:05:17;10.35;;;6.32;;
52946;SDS011;45776;40.400;17.260;2022-07-05T10:07:45;12.18;;;7.20;;
52946;SDS011;45776;40.400;17.260;2022-07-05T10:10:27;13.57;;;6.95;;
52946;SDS011;45776;40.400;17.260;2022-07-05T10:13:01;11.43;;;6.95;;
52946;SDS011;45776;40.400;17.260;2022-07-05T10:15:32;10.77;;;7.15;;
52946;SDS011;45776;40.400;17.260;2022-07-05T10:18:06;11.20;;;6.85;;
52946;SDS011;45776;40.400;17.260;2022-07-05T10:20:41;8.33;;;6.27;;
52946;SDS011;45776;40.400;17.260;2022-07-05T10:23:12;9.02;;;6.32;;
52946;SDS011;45776;40.400;17.260;2022-07-05T10:25:42;10.07;;;6.00;;
52946;SDS011;45776;40.400;17.260;2022-07-05T10:28:09;8.35;;;5.35;;
52946;SDS011;45776;40.400;17.260;2022-07-05T10:30:35;7.50;;;4.97;;
52946;SDS011;45776;40.400;17.260;2022-07-05T10:33:04;6.80;;;4.65;;
52946;SDS011;45776;40.400;17.260;2022-07-05T10:35:31;9.63;;;5.20;;
52946;SDS011;45776;40.400;17.260;2022-07-05T10:37:57;9.00;;;4.80;;
52946;SDS011;45776;40.400;17.260;2022-07-05T10:40:24;8.30;;;4.65;;
52946;SDS011;45776;40.400;17.260;2022-07-05T10:42:52;7.63;;;5.20;;
52946;SDS011;45776;40.400;17.260;2022-07-05T10:45:24;9.20;;;5.53;;
52946;SDS011;45776;40.400;17.260;2022-07-05T10:53:20;7.65;;;4.80;;
52946;SDS011;45776;40.400;17.260;2022-07-05T10:58:34;9.13;;;4.57;;
52946;SDS011;45776;40.400;17.260;2022-07-05T11:03:54;7.60;;;5.03;;
52946;SDS011;45776;40.400;17.260;2022-07-05T11:11:32;8.05;;;4.60;;
52946;SDS011;45776;40.400;17.260;2022-07-05T11:14:00;6.90;;;3.78;;
52946;SDS011;45776;40.400;17.260;2022-07-05T11:16:30;7.97;;;4.15;;
52946;SDS011;45776;40.400;17.260;2022-07-05T11:21:31;9.80;;;5.10;;
52946;SDS011;45776;40.400;17.260;2022-07-05T11:26:41;6.97;;;4.18;;
52946;SDS011;45776;40.400;17.260;2022-07-05T11:29:07;6.53;;;3.88;;
52946;SDS011;45776;40.400;17.260;2022-07-05T11:32:08;7.43;;;4.50;;
52946;SDS011;45776;40.400;17.260;2022-07-05T11:34:45;9.77;;;5.30;;
52946;SDS011;45776;40.400;17.260;2022-07-05T11:37:24;12.38;;;5.63;;
52946;SDS011;45776;40.400;17.260;2022-07-05T11:42:45;6.88;;;5.10;;
52946;SDS011;45776;40.400;17.260;2022-07-05T11:45:12;8.93;;;4.93;;
52946;SDS011;45776;40.400;17.260;2022-07-05T11:47:38;8.32;;;5.22;;
52946;SDS011;45776;40.400;17.260;2022-07-05T11:50:04;12.68;;;5.30;;
52946;SDS011;45776;40.400;17.260;2022-07-05T11:52:31;8.77;;;5.47;;
52946;SDS011;45776;40.400;17.260;2022-07-05T11:54:58;8.35;;;5.82;;
52946;SDS011;45776;40.400;17.260;2022-07-05T11:57:25;9.18;;;6.10;;
52946;SDS011;45776;40.400;17.260;2022-07-05T11:59:51;9.73;;;6.25;;
52946;SDS011;45776;40.400;17.260;2022-07-05T12:02:17;9.45;;;5.47;;
52946;SDS011;45776;40.400;17.260;2022-07-05T12:04:47;12.43;;;5.22;;
52946;SDS011;45776;40.400;17.260;2022-07-05T12:07:28;9.30;;;5.60;;
52946;SDS011;45776;40.400;17.260;2022-07-05T12:09:58;9.80;;;5.60;;
52946;SDS011;45776;40.400;17.260;2022-07-05T12:12:44;12.77;;;5.38;;
52946;SDS011;45776;40.400;17.260;2022-07-05T12:15:13;7.53;;;5.22;;
52946;SDS011;45776;40.400;17.260;2022-07-05T12:17:41;10.43;;;4.90;;
52946;SDS011;45776;40.400;17.260;2022-07-05T12:20:09;9.20;;;5.18;;
52946;SDS011;45776;40.400;17.260;2022-07-05T12:22:37;9.50;;;4.60;;
52946;SDS011;45776;40.400;17.260;2022-07-05T12:25:05;8.38;;;4.70;;
52946;SDS011;45776;40.400;17.260;2022-07-05T12:27:33;7.00;;;4.38;;
52946;SDS011;45776;40.400;17.260;2022-07-05T12:30:03;6.25;;;4.50;;
52946;SDS011;45776;40.400;17.260;2022-07-05T12:32:30;7.72;;;4.97;;
52946;SDS011;45776;40.400;17.260;2022-07-05T12:34:57;6.93;;;4.53;;
52946;SDS011;45776;40.400;17.260;2022-07-05T12:37:23;9.52;;;4.97;;
52946;SDS011;45776;40.400;17.260;2022-07-05T12:39:50;10.02;;;4.90;;
52946;SDS011;45776;40.400;17.260;2022-07-05T12:42:31;7.03;;;4.72;;
52946;SDS011;45776;40.400;17.260;2022-07-05T12:45:16;7.95;;;5.32;;
52946;SDS011;45776;40.400;17.260;2022-07-05T12:47:50;12.27;;;6.07;;
52946;SDS011;45776;40.400;17.260;2022-07-05T12:50:18;7.75;;;5.38;;
52946;SDS011;45776;40.400;17.260;2022-07-05T12:52:57;10.70;;;5.38;;
52946;SDS011;45776;40.400;17.260;2022-07-05T12:55:46;7.68;;;5.13;;
52946;SDS011;45776;40.400;17.260;2022-07-05T12:58:30;10.85;;;5.10;;
52946;SDS011;45776;40.400;17.260;2022-07-05T13:00:56;10.65;;;5.13;;
52946;SDS011;45776;40.400;17.260;2022-07-05T13:03:22;11.10;;;5.82;;
52946;SDS011;45776;40.400;17.260;2022-07-05T13:05:59;8.35;;;5.85;;
52946;SDS011;45776;40.400;17.260;2022-07-05T13:08:27;10.05;;;5.72;;
52946;SDS011;45776;40.400;17.260;2022-07-05T13:10:54;11.02;;;5.43;;
52946;SDS011;45776;40.400;17.260;2022-07-05T13:13:19;13.13;;;5.75;;
52946;SDS011;45776;40.400;17.260;2022-07-05T13:15:45;10.23;;;5.30;;
52946;SDS011;45776;40.400;17.260;2022-07-05T13:18:11;7.40;;;4.53;;
52946;SDS011;45776;40.400;17.260;2022-07-05T13:20:36;5.47;;;4.50;;
52946;SDS011;45776;40.400;17.260;2022-07-05T13:23:02;8.98;;;5.05;;
52946;SDS011;45776;40.400;17.260;2022-07-05T13:25:27;13.15;;;5.78;;
52946;SDS011;45776;40.400;17.260;2022-07-05T13:27:53;11.10;;;5.50;;
52946;SDS011;45776;40.400;17.260;2022-07-05T13:30:20;11.82;;;5.93;;
52946;SDS011;45776;40.400;17.260;2022-07-05T13:32:46;8.63;;;4.90;;
52946;SDS011;45776;40.400;17.260;2022-07-05T13:35:11;10.57;;;5.28;;
52946;SDS011;45776;40.400;17.260;2022-07-05T13:37:37;8.15;;;5.13;;
52946;SDS011;45776;40.400;17.260;2022-07-05T13:40:02;9.15;;;4.82;;
52946;SDS011;45776;40.400;17.260;2022-07-05T13:42:28;11.50;;;5.78;;
52946;SDS011;45776;40.400;17.260;2022-07-05T13:44:54;7.43;;;4.93;;
52946;SDS011;45776;40.400;17.260;2022-07-05T13:47:19;10.30;;;5.05;;
52946;SDS011;45776;40.400;17.260;2022-07-05T13:49:45;11.40;;;5.00;;
52946;SDS011;45776;40.400;17.260;2022-07-05T13:52:10;7.68;;;4.53;;
52946;SDS011;45776;40.400;17.260;2022-07-05T13:54:36;8.73;;;4.80;;
52946;SDS011;45776;40.400;17.260;2022-07-05T13:57:01;8.98;;;4.47;;
52946;SDS011;45776;40.400;17.260;2022-07-05T13:59:27;7.07;;;4.10;;
52946;SDS011;45776;40.400;17.260;2022-07-05T14:01:52;8.02;;;4.47;;
52946;SDS011;45776;40.400;17.260;2022-07-05T14:04:18;7.25;;;4.63;;
52946;SDS011;45776;40.400;17.260;2022-07-05T14:06:43;9.60;;;5.00;;
52946;SDS011;45776;40.400;17.260;2022-07-05T14:09:11;14.48;;;4.80;;
52946;SDS011;45776;40.400;17.260;2022-07-05T14:11:36;5.47;;;4.30;;
52946;SDS011;45776;40.400;17.260;2022-07-05T14:14:02;6.07;;;4.90;;
52946;SDS011;45776;40.400;17.260;2022-07-05T14:16:27;5.68;;;4.38;;
52946;SDS011;45776;40.400;17.260;2022-07-05T14:18:53;9.05;;;4.75;;
52946;SDS011;45776;40.400;17.260;2022-07-05T14:21:18;5.18;;;4.40;;
52946;SDS011;45776;40.400;17.260;2022-07-05T14:23:44;11.95;;;4.35;;
52946;SDS011;45776;40.400;17.260;2022-07-05T14:26:13;6.95;;;3.72;;
52946;SDS011;45776;40.400;17.260;2022-07-05T14:28:39;9.40;;;3.58;;
52946;SDS011;45776;40.400;17.260;2022-07-05T14:31:05;7.88;;;3.58;;
52946;SDS011;45776;40.400;17.260;2022-07-05T14:33:30;5.45;;;3.13;;
52946;SDS011;45776;40.400;17.260;2022-07-05T14:35:56;7.85;;;3.25;;
52946;SDS011;45776;40.400;17.260;2022-07-05T14:38:22;9.10;;;3.17;;
52946;SDS011;45776;40.400;17.260;2022-07-05T14:40:47;6.97;;;3.00;;
52946;SDS011;45776;40.400;17.260;2022-07-05T14:43:13;9.27;;;3.30;;
52946;SDS011;45776;40.400;17.260;2022-07-05T14:45:38;12.18;;;3.55;;
52946;SDS011;45776;40.400;17.260;2022-07-05T14:48:04;9.45;;;3.38;;
52946;SDS011;45776;40.400;17.260;2022-07-05T14:50:29;7.45;;;3.80;;
52946;SDS011;45776;40.400;17.260;2022-07-05T14:52:56;6.90;;;3.90;;
52946;SDS011;45776;40.400;17.260;2022-07-05T14:55:21;9.63;;;4.45;;
52946;SDS011;45776;40.400;17.260;2022-07-05T14:57:47;6.68;;;3.20;;
52946;SDS011;45776;40.400;17.260;2022-07-05T15:00:13;9.27;;;3.50;;
52946;SDS011;45776;40.400;17.260;2022-07-05T15:02:40;9.77;;;3.97;;